sensor_id;sensor_type;location;lat;lon;timestamp;P1;durP1;ratioP1;P2;durP2;ratioP2
5054;SDS011;13829;48.990;8.346;2023-09-12T00:00:42;14.40;;;12.52;;
5054;SDS011;13829;48.990;8.346;2023-09-12T00:03:09;16.13;;;11.95;;
5054;SDS011;13829;48.990;8.346;2023-09-12T00:05:38;14.95;;;12.32;;
5054;SDS011;13829;48.990;8.346;2023-09-12T00:08:05;15.55;;;12.02;;
5054;SDS011;13829;48.990;8.346;2023-09-12T00:10:33;13.70;;;12.07;;
5054;SDS011;13829;48.990;8.346;2023-09-12T00:13:00;15.60;;;12.98;;
5054;SDS011;13829;48.990;8.346;2023-09-12T00:15:27;13.40;;;11.25;;
5054;SDS011;13829;48.990;8.346;2023-09-12T00:17:54;14.07;;;11.30;;
5054;SDS011;13829;48.990;8.346;2023-09-12T00:20:21;16.83;;;12.63;;
5054;SDS011;13829;48.990;8.346;2023-09-12T00:22:49;14.25;;;12.63;;
5054;SDS011;13829;48.990;8.346;2023-09-12T00:25:18;14.30;;;12.02;;
5054;SDS011;13829;48.990;8.346;2023-09-12T00:27:45;15.30;;;11.60;;
5054;SDS011;13829;48.990;8.346;2023-09-12T00:30:13;13.00;;;11.70;;
5054;SDS011;13829;48.990;8.346;2023-09-12T00:32:41;17.15;;;12.77;;
5054;SDS011;13829;48.990;8.346;2023-09-12T00:35:08;17.77;;;12.85;;
5054;SDS011;13829;48.990;8.346;2023-09-12T00:37:35;13.85;;;12.35;;
5054;SDS011;13829;48.990;8.346;2023-09-12T00:40:03;15.85;;;12.15;;
5054;SDS011;13829;48.990;8.346;2023-09-12T00:42:32;15.73;;;12.18;;
5054;SDS011;13829;48.990;8.346;2023-09-12T00:44:59;14.20;;;12.15;;
5054;SDS011;13829;48.990;8.346;2023-09-12T00:47:26;13.90;;;12.38;;
5054;SDS011;13829;48.990;8.346;2023-09-12T00:49:55;13.80;;;11.90;;
5054;SDS011;13829;48.990;8.346;2023-09-12T00:52:25;13.00;;;11.70;;
5054;SDS011;13829;48.990;8.346;2023-09-12T00:54:55;14.23;;;11.70;;
5054;SDS011;13829;48.990;8.346;2023-09-12T00:57:24;14.98;;;12.20;;
5054;SDS011;13829;48.990;8.346;2023-09-12T00:59:52;16.15;;;12.57;;
5054;SDS011;13829;48.990;8.346;2023-09-12T01:02:20;13.93;;;12.43;;
5054;SDS011;13829;48.990;8.346;2023-09-12T01:04:48;15.50;;;12.65;;
5054;SDS011;13829;48.990;8.346;2023-09-12T01:07:16;14.27;;;12.63;;
5054;SDS011;13829;48.990;8.346;2023-09-12T01:09:43;17.95;;;12.48;;
5054;SDS011;13829;48.990;8.346;2023-09-12T01:12:11;13.68;;;11.15;;
5054;SDS011;13829;48.990;8.346;2023-09-12T01:14:41;17.02;;;13.25;;
5054;SDS011;13829;48.990;8.346;2023-09-12T01:17:08;16.02;;;13.15;;
5054;SDS011;13829;48.990;8.346;2023-09-12T01:19:35;21.05;;;12.90;;
5054;SDS011;13829;48.990;8.346;2023-09-12T01:25:20;12.57;;;11.38;;
5054;SDS011;13829;48.990;8.346;2023-09-12T01:28:12;14.82;;;12.32;;
5054;SDS011;13829;48.990;8.346;2023-09-12T01:30:43;15.50;;;11.38;;
5054;SDS011;13829;48.990;8.346;2023-09-12T01:33:14;13.48;;;11.95;;
5054;SDS011;13829;48.990;8.346;2023-09-12T01:35:42;15.35;;;12.40;;
5054;SDS011;13829;48.990;8.346;2023-09-12T01:38:11;15.20;;;12.13;;
5054;SDS011;13829;48.990;8.346;2023-09-12T01:40:40;13.63;;;11.77;;
5054;SDS011;13829;48.990;8.346;2023-09-12T01:43:15;12.77;;;11.52;;
5054;SDS011;13829;48.990;8.346;2023-09-12T01:45:45;13.60;;;11.27;;
5054;SDS011;13829;48.990;8.346;2023-09-12T01:48:14;12.45;;;11.15;;
5054;SDS011;13829;48.990;8.346;2023-09-12T01:50:47;13.65;;;10.70;;
5054;SDS011;13829;48.990;8.346;2023-09-12T01:53:15;15.32;;;11.98;;
5054;SDS011;13829;48.990;8.346;2023-09-12T01:55:43;13.32;;;11.80;;
5054;SDS011;13829;48.990;8.346;2023-09-12T01:58:12;13.02;;;11.68;;
5054;SDS011;13829;48.990;8.346;2023-09-12T02:00:41;12.73;;;11.43;;
5054;SDS011;13829;48.990;8.346;2023-09-12T02:03:09;13.98;;;11.73;;
5054;SDS011;13829;48.990;8.346;2023-09-12T02:05:35;14.73;;;11.40;;
5054;SDS011;13829;48.990;8.346;2023-09-12T02:08:04;15.48;;;11.65;;
5054;SDS011;13829;48.990;8.346;2023-09-12T02:10:31;12.90;;;11.13;;
5054;SDS011;13829;48.990;8.346;2023-09-12T02:12:58;16.45;;;11.82;;
5054;SDS011;13829;48.990;8.346;2023-09-12T02:15:25;13.60;;;11.40;;
5054;SDS011;13829;48.990;8.346;2023-09-12T02:17:53;15.35;;;13.00;;
5054;SDS011;13829;48.990;8.346;2023-09-12T02:20:20;13.63;;;12.23;;
5054;SDS011;13829;48.990;8.346;2023-09-12T02:22:47;13.27;;;11.90;;
5054;SDS011;13829;48.990;8.346;2023-09-12T02:25:14;13.15;;;11.77;;
5054;SDS011;13829;48.990;8.346;2023-09-12T02:27:42;19.15;;;11.77;;
5054;SDS011;13829;48.990;8.346;2023-09-12T02:30:09;13.65;;;11.68;;
5054;SDS011;13829;48.990;8.346;2023-09-12T02:32:36;12.82;;;11.63;;
5054;SDS011;13829;48.990;8.346;2023-09-12T02:35:05;13.55;;;10.90;;
5054;SDS011;13829;48.990;8.346;2023-09-12T02:37:32;16.40;;;11.57;;
5054;SDS011;13829;48.990;8.346;2023-09-12T02:40:00;17.23;;;11.73;;
5054;SDS011;13829;48.990;8.346;2023-09-12T02:42:26;14.32;;;11.02;;
5054;SDS011;13829;48.990;8.346;2023-09-12T02:44:53;14.32;;;11.70;;
5054;SDS011;13829;48.990;8.346;2023-09-12T02:47:20;12.98;;;11.00;;
5054;SDS011;13829;48.990;8.346;2023-09-12T02:49:47;14.15;;;11.18;;
5054;SDS011;13829;48.990;8.346;2023-09-12T02:52:15;13.18;;;11.77;;
5054;SDS011;13829;48.990;8.346;2023-09-12T02:54:42;13.68;;;11.95;;
5054;SDS011;13829;48.990;8.346;2023-09-12T02:57:09;13.65;;;10.80;;
5054;SDS011;13829;48.990;8.346;2023-09-12T02:59:36;13.93;;;12.23;;
5054;SDS011;13829;48.990;8.346;2023-09-12T03:02:03;15.27;;;11.55;;
5054;SDS011;13829;48.990;8.346;2023-09-12T03:04:30;11.73;;;10.40;;
5054;SDS011;13829;48.990;8.346;2023-09-12T03:07:01;14.35;;;11.38;;
5054;SDS011;13829;48.990;8.346;2023-09-12T03:09:30;16.60;;;11.05;;
5054;SDS011;13829;48.990;8.346;2023-09-12T03:11:57;13.77;;;11.52;;
5054;SDS011;13829;48.990;8.346;2023-09-12T03:14:23;12.77;;;10.98;;
5054;SDS011;13829;48.990;8.346;2023-09-12T03:16:53;12.85;;;10.82;;
5054;SDS011;13829;48.990;8.346;2023-09-12T03:19:21;13.63;;;11.07;;
5054;SDS011;13829;48.990;8.346;2023-09-12T03:21:47;14.25;;;10.88;;
5054;SDS011;13829;48.990;8.346;2023-09-12T03:24:14;13.68;;;10.68;;
5054;SDS011;13829;48.990;8.346;2023-09-12T03:26:44;12.43;;;10.63;;
5054;SDS011;13829;48.990;8.346;2023-09-12T03:29:11;12.48;;;10.80;;
5054;SDS011;13829;48.990;8.346;2023-09-12T03:31:38;11.80;;;10.52;;
5054;SDS011;13829;48.990;8.346;2023-09-12T03:34:05;13.32;;;11.02;;
5054;SDS011;13829;48.990;8.346;2023-09-12T03:36:32;14.45;;;11.23;;
5054;SDS011;13829;48.990;8.346;2023-09-12T03:38:59;14.07;;;11.07;;
5054;SDS011;13829;48.990;8.346;2023-09-12T03:41:26;12.15;;;10.88;;
5054;SDS011;13829;48.990;8.346;2023-09-12T03:43:54;11.98;;;10.77;;
5054;SDS011;13829;48.990;8.346;2023-09-12T03:46:21;13.73;;;10.60;;
5054;SDS011;13829;48.990;8.346;2023-09-12T03:48:48;13.63;;;10.45;;
5054;SDS011;13829;48.990;8.346;2023-09-12T03:51:15;16.23;;;11.15;;
5054;SDS011;13829;48.990;8.346;2023-09-12T03:53:42;10.90;;;9.82;;
5054;SDS011;13829;48.990;8.346;2023-09-12T03:56:09;13.32;;;10.68;;
5054;SDS011;13829;48.990;8.346;2023-09-12T03:58:37;14.25;;;11.15;;
5054;SDS011;13829;48.990;8.346;2023-09-12T04:01:06;11.50;;;10.18;;
5054;SDS011;13829;48.990;8.346;2023-09-12T04:03:33;12.13;;;10.82;;
5054;SDS011;13829;48.990;8.346;2023-09-12T04:06:00;12.68;;;10.30;;
5054;SDS011;13829;48.990;8.346;2023-09-12T04:08:27;12.63;;;10.50;;
5054;SDS011;13829;48.990;8.346;2023-09-12T04:10:54;12.68;;;11.38;;
5054;SDS011;13829;48.990;8.346;2023-09-12T04:13:21;12.77;;;11.48;;
5054;SDS011;13829;48.990;8.346;2023-09-12T04:15:48;16.05;;;10.85;;
5054;SDS011;13829;48.990;8.346;2023-09-12T04:18:16;11.57;;;10.40;;
5054;SDS011;13829;48.990;8.346;2023-09-12T04:20:43;12.05;;;10.80;;
5054;SDS011;13829;48.990;8.346;2023-09-12T04:23:10;14.77;;;10.77;;
5054;SDS011;13829;48.990;8.346;2023-09-12T04:25:36;12.07;;;10.73;;
5054;SDS011;13829;48.990;8.346;2023-09-12T04:28:04;12.40;;;11.02;;
5054;SDS011;13829;48.990;8.346;2023-09-12T04:30:31;12.25;;;11.05;;
5054;SDS011;13829;48.990;8.346;2023-09-12T04:32:58;12.15;;;10.48;;
5054;SDS011;13829;48.990;8.346;2023-09-12T04:35:26;13.27;;;11.15;;
5054;SDS011;13829;48.990;8.346;2023-09-12T04:37:54;13.65;;;10.80;;
5054;SDS011;13829;48.990;8.346;2023-09-12T04:40:21;12.75;;;11.45;;
5054;SDS011;13829;48.990;8.346;2023-09-12T04:42:48;14.45;;;11.40;;
5054;SDS011;13829;48.990;8.346;2023-09-12T04:45:15;14.57;;;11.00;;
5054;SDS011;13829;48.990;8.346;2023-09-12T04:47:42;13.18;;;10.70;;
5054;SDS011;13829;48.990;8.346;2023-09-12T04:50:09;13.73;;;10.88;;
5054;SDS011;13829;48.990;8.346;2023-09-12T04:52:38;13.10;;;11.48;;
5054;SDS011;13829;48.990;8.346;2023-09-12T04:55:06;13.45;;;11.07;;
5054;SDS011;13829;48.990;8.346;2023-09-12T04:57:34;13.95;;;11.57;;
5054;SDS011;13829;48.990;8.346;2023-09-12T05:00:01;12.07;;;10.85;;
5054;SDS011;13829;48.990;8.346;2023-09-12T05:02:30;13.45;;;12.05;;
5054;SDS011;13829;48.990;8.346;2023-09-12T05:04:56;12.70;;;10.73;;
5054;SDS011;13829;48.990;8.346;2023-09-12T05:07:23;12.93;;;11.63;;
5054;SDS011;13829;48.990;8.346;2023-09-12T05:09:52;14.38;;;11.65;;
5054;SDS011;13829;48.990;8.346;2023-09-12T05:12:19;13.90;;;12.10;;
5054;SDS011;13829;48.990;8.346;2023-09-12T05:14:45;14.48;;;11.50;;
5054;SDS011;13829;48.990;8.346;2023-09-12T05:17:12;13.73;;;11.88;;
5054;SDS011;13829;48.990;8.346;2023-09-12T05:19:39;13.25;;;11.52;;
5054;SDS011;13829;48.990;8.346;2023-09-12T05:22:06;13.18;;;11.32;;
5054;SDS011;13829;48.990;8.346;2023-09-12T05:24:33;14.57;;;11.48;;
5054;SDS011;13829;48.990;8.346;2023-09-12T05:27:01;12.50;;;11.20;;
5054;SDS011;13829;48.990;8.346;2023-09-12T05:29:30;13.25;;;11.75;;
5054;SDS011;13829;48.990;8.346;2023-09-12T05:31:57;12.63;;;11.30;;
5054;SDS011;13829;48.990;8.346;2023-09-12T05:34:24;14.00;;;11.45;;
5054;SDS011;13829;48.990;8.346;2023-09-12T05:36:51;16.55;;;11.48;;
5054;SDS011;13829;48.990;8.346;2023-09-12T05:39:18;16.45;;;12.45;;
5054;SDS011;13829;48.990;8.346;2023-09-12T05:41:45;13.52;;;11.68;;
5054;SDS011;13829;48.990;8.346;2023-09-12T05:44:13;12.98;;;11.25;;
5054;SDS011;13829;48.990;8.346;2023-09-12T05:46:43;14.57;;;12.60;;
5054;SDS011;13829;48.990;8.346;2023-09-12T05:49:11;14.38;;;11.82;;
5054;SDS011;13829;48.990;8.346;2023-09-12T05:51:37;13.52;;;11.60;;
5054;SDS011;13829;48.990;8.346;2023-09-12T05:54:05;13.85;;;11.55;;
5054;SDS011;13829;48.990;8.346;2023-09-12T05:56:33;13.68;;;12.27;;
5054;SDS011;13829;48.990;8.346;2023-09-12T05:59:00;15.52;;;11.57;;
5054;SDS011;13829;48.990;8.346;2023-09-12T06:01:29;16.17;;;13.23;;
5054;SDS011;13829;48.990;8.346;2023-09-12T06:03:56;13.65;;;12.25;;
5054;SDS011;13829;48.990;8.346;2023-09-12T06:06:22;14.88;;;12.57;;
5054;SDS011;13829;48.990;8.346;2023-09-12T06:08:49;14.48;;;12.95;;
5054;SDS011;13829;48.990;8.346;2023-09-12T06:11:18;15.05;;;13.15;;
5054;SDS011;13829;48.990;8.346;2023-09-12T06:13:45;17.25;;;14.20;;
5054;SDS011;13829;48.990;8.346;2023-09-12T06:16:12;15.20;;;13.60;;
5054;SDS011;13829;48.990;8.346;2023-09-12T06:18:40;15.45;;;13.00;;
5054;SDS011;13829;48.990;8.346;2023-09-12T06:21:07;21.15;;;13.48;;
5054;SDS011;13829;48.990;8.346;2023-09-12T06:23:34;23.25;;;14.38;;
5054;SDS011;13829;48.990;8.346;2023-09-12T06:26:01;18.52;;;13.77;;
5054;SDS011;13829;48.990;8.346;2023-09-12T06:28:28;16.65;;;12.98;;
5054;SDS011;13829;48.990;8.346;2023-09-12T06:30:56;14.30;;;12.80;;
5054;SDS011;13829;48.990;8.346;2023-09-12T06:33:25;15.15;;;11.82;;
5054;SDS011;13829;48.990;8.346;2023-09-12T06:35:54;15.25;;;13.63;;
5054;SDS011;13829;48.990;8.346;2023-09-12T06:38:22;15.80;;;13.30;;
5054;SDS011;13829;48.990;8.346;2023-09-12T06:40:49;18.38;;;12.48;;
5054;SDS011;13829;48.990;8.346;2023-09-12T06:43:16;18.55;;;13.77;;
5054;SDS011;13829;48.990;8.346;2023-09-12T06:45:44;22.20;;;14.60;;
5054;SDS011;13829;48.990;8.346;2023-09-12T06:48:11;17.35;;;13.18;;
5054;SDS011;13829;48.990;8.346;2023-09-12T06:50:38;19.00;;;12.23;;
5054;SDS011;13829;48.990;8.346;2023-09-12T06:53:06;17.50;;;11.93;;
5054;SDS011;13829;48.990;8.346;2023-09-12T06:55:35;18.17;;;11.80;;
5054;SDS011;13829;48.990;8.346;2023-09-12T06:58:02;15.07;;;10.80;;
5054;SDS011;13829;48.990;8.346;2023-09-12T07:00:29;12.45;;;10.90;;
5054;SDS011;13829;48.990;8.346;2023-09-12T07:02:57;17.58;;;10.50;;
5054;SDS011;13829;48.990;8.346;2023-09-12T07:05:24;11.02;;;9.85;;
5054;SDS011;13829;48.990;8.346;2023-09-12T07:07:52;13.98;;;10.15;;
5054;SDS011;13829;48.990;8.346;2023-09-12T07:10:20;13.38;;;10.82;;
5054;SDS011;13829;48.990;8.346;2023-09-12T07:12:48;12.13;;;10.52;;
5054;SDS011;13829;48.990;8.346;2023-09-12T07:15:15;14.32;;;10.90;;
5054;SDS011;13829;48.990;8.346;2023-09-12T07:17:42;11.60;;;10.40;;
5054;SDS011;13829;48.990;8.346;2023-09-12T07:20:09;14.13;;;10.55;;
5054;SDS011;13829;48.990;8.346;2023-09-12T07:22:38;14.75;;;10.27;;
5054;SDS011;13829;48.990;8.346;2023-09-12T07:25:06;13.65;;;10.57;;
5054;SDS011;13829;48.990;8.346;2023-09-12T07:27:37;11.20;;;10.15;;
5054;SDS011;13829;48.990;8.346;2023-09-12T07:30:05;14.82;;;11.35;;
5054;SDS011;13829;48.990;8.346;2023-09-12T07:32:34;15.60;;;10.25;;
5054;SDS011;13829;48.990;8.346;2023-09-12T07:35:01;12.02;;;10.43;;
5054;SDS011;13829;48.990;8.346;2023-09-12T07:37:28;14.68;;;11.05;;
5054;SDS011;13829;48.990;8.346;2023-09-12T07:39:55;13.00;;;10.20;;
5054;SDS011;13829;48.990;8.346;2023-09-12T07:42:22;15.05;;;10.85;;
5054;SDS011;13829;48.990;8.346;2023-09-12T07:44:51;11.88;;;10.23;;
5054;SDS011;13829;48.990;8.346;2023-09-12T07:47:17;14.93;;;11.05;;
5054;SDS011;13829;48.990;8.346;2023-09-12T07:49:45;12.80;;;9.63;;
5054;SDS011;13829;48.990;8.346;2023-09-12T07:52:18;12.43;;;9.27;;
5054;SDS011;13829;48.990;8.346;2023-09-12T07:54:45;13.68;;;10.35;;
5054;SDS011;13829;48.990;8.346;2023-09-12T07:57:12;14.40;;;10.43;;
5054;SDS011;13829;48.990;8.346;2023-09-12T07:59:39;11.38;;;10.07;;
5054;SDS011;13829;48.990;8.346;2023-09-12T08:02:07;13.45;;;9.95;;
5054;SDS011;13829;48.990;8.346;2023-09-12T08:04:37;11.18;;;9.80;;
5054;SDS011;13829;48.990;8.346;2023-09-12T08:07:04;13.25;;;8.93;;
5054;SDS011;13829;48.990;8.346;2023-09-12T08:12:15;13.05;;;9.98;;
5054;SDS011;13829;48.990;8.346;2023-09-12T08:14:43;10.40;;;9.38;;
5054;SDS011;13829;48.990;8.346;2023-09-12T08:17:12;13.25;;;10.20;;
5054;SDS011;13829;48.990;8.346;2023-09-12T08:19:39;18.83;;;10.63;;
5054;SDS011;13829;48.990;8.346;2023-09-12T08:22:07;12.23;;;8.25;;
5054;SDS011;13829;48.990;8.346;2023-09-12T08:24:35;14.43;;;9.65;;
5054;SDS011;13829;48.990;8.346;2023-09-12T08:27:04;14.43;;;10.43;;
5054;SDS011;13829;48.990;8.346;2023-09-12T08:29:32;14.30;;;10.38;;
5054;SDS011;13829;48.990;8.346;2023-09-12T08:32:00;15.65;;;9.90;;
5054;SDS011;13829;48.990;8.346;2023-09-12T08:34:29;15.70;;;10.80;;
5054;SDS011;13829;48.990;8.346;2023-09-12T08:36:56;11.48;;;10.27;;
5054;SDS011;13829;48.990;8.346;2023-09-12T08:39:23;11.38;;;10.25;;
5054;SDS011;13829;48.990;8.346;2023-09-12T08:41:53;14.13;;;10.05;;
5054;SDS011;13829;48.990;8.346;2023-09-12T08:44:20;11.38;;;10.23;;
5054;SDS011;13829;48.990;8.346;2023-09-12T08:46:48;15.52;;;10.55;;
5054;SDS011;13829;48.990;8.346;2023-09-12T08:49:15;15.90;;;11.20;;
5054;SDS011;13829;48.990;8.346;2023-09-12T08:51:43;12.15;;;10.77;;
5054;SDS011;13829;48.990;8.346;2023-09-12T08:54:10;14.95;;;12.02;;
5054;SDS011;13829;48.990;8.346;2023-09-12T08:56:39;12.27;;;10.55;;
5054;SDS011;13829;48.990;8.346;2023-09-12T08:59:09;13.25;;;10.52;;
5054;SDS011;13829;48.990;8.346;2023-09-12T09:01:37;15.00;;;10.32;;
5054;SDS011;13829;48.990;8.346;2023-09-12T09:04:05;12.93;;;10.65;;
5054;SDS011;13829;48.990;8.346;2023-09-12T09:06:33;13.70;;;10.23;;
5054;SDS011;13829;48.990;8.346;2023-09-12T09:09:05;13.13;;;10.27;;
5054;SDS011;13829;48.990;8.346;2023-09-12T09:11:34;14.48;;;10.30;;
5054;SDS011;13829;48.990;8.346;2023-09-12T09:14:01;13.80;;;10.27;;
5054;SDS011;13829;48.990;8.346;2023-09-12T09:16:29;13.57;;;10.18;;
5054;SDS011;13829;48.990;8.346;2023-09-12T09:18:57;12.27;;;10.15;;
5054;SDS011;13829;48.990;8.346;2023-09-12T09:21:27;11.50;;;9.93;;
5054;SDS011;13829;48.990;8.346;2023-09-12T09:23:57;11.45;;;9.73;;
5054;SDS011;13829;48.990;8.346;2023-09-12T09:26:31;13.52;;;10.15;;
5054;SDS011;13829;48.990;8.346;2023-09-12T09:29:09;13.77;;;10.45;;
5054;SDS011;13829;48.990;8.346;2023-09-12T09:31:40;15.57;;;10.48;;
5054;SDS011;13829;48.990;8.346;2023-09-12T09:34:11;13.48;;;10.85;;
5054;SDS011;13829;48.990;8.346;2023-09-12T09:36:43;12.82;;;11.05;;
5054;SDS011;13829;48.990;8.346;2023-09-12T09:39:10;12.00;;;10.40;;
5054;SDS011;13829;48.990;8.346;2023-09-12T09:41:40;11.05;;;9.98;;
5054;SDS011;13829;48.990;8.346;2023-09-12T09:44:08;12.20;;;10.93;;
5054;SDS011;13829;48.990;8.346;2023-09-12T09:46:35;11.63;;;10.52;;
5054;SDS011;13829;48.990;8.346;2023-09-12T09:49:04;15.25;;;11.25;;
5054;SDS011;13829;48.990;8.346;2023-09-12T09:51:32;12.70;;;10.63;;
5054;SDS011;13829;48.990;8.346;2023-09-12T09:54:07;15.32;;;11.07;;
5054;SDS011;13829;48.990;8.346;2023-09-12T09:56:37;20.40;;;11.30;;
5054;SDS011;13829;48.990;8.346;2023-09-12T09:59:13;18.17;;;11.30;;
5054;SDS011;13829;48.990;8.346;2023-09-12T10:01:41;17.02;;;11.45;;
5054;SDS011;13829;48.990;8.346;2023-09-12T10:04:09;13.65;;;10.98;;
5054;SDS011;13829;48.990;8.346;2023-09-12T10:06:37;16.25;;;11.68;;
5054;SDS011;13829;48.990;8.346;2023-09-12T10:09:06;13.18;;;11.88;;
5054;SDS011;13829;48.990;8.346;2023-09-12T10:11:37;15.65;;;11.55;;
5054;SDS011;13829;48.990;8.346;2023-09-12T10:14:07;14.63;;;11.18;;
5054;SDS011;13829;48.990;8.346;2023-09-12T10:16:35;13.57;;;10.00;;
5054;SDS011;13829;48.990;8.346;2023-09-12T10:19:17;14.13;;;11.02;;
5054;SDS011;13829;48.990;8.346;2023-09-12T10:21:48;13.68;;;10.98;;
5054;SDS011;13829;48.990;8.346;2023-09-12T10:24:20;12.55;;;11.25;;
5054;SDS011;13829;48.990;8.346;2023-09-12T10:26:49;14.77;;;11.68;;
5054;SDS011;13829;48.990;8.346;2023-09-12T10:29:19;13.05;;;10.57;;
5054;SDS011;13829;48.990;8.346;2023-09-12T10:31:48;16.30;;;11.05;;
5054;SDS011;13829;48.990;8.346;2023-09-12T10:34:15;15.25;;;10.68;;
5054;SDS011;13829;48.990;8.346;2023-09-12T10:36:44;11.52;;;10.30;;
5054;SDS011;13829;48.990;8.346;2023-09-12T10:39:13;14.05;;;11.48;;
5054;SDS011;13829;48.990;8.346;2023-09-12T10:41:41;16.58;;;11.05;;
5054;SDS011;13829;48.990;8.346;2023-09-12T10:44:09;13.13;;;10.60;;
5054;SDS011;13829;48.990;8.346;2023-09-12T10:46:40;11.80;;;10.60;;
5054;SDS011;13829;48.990;8.346;2023-09-12T10:49:09;13.90;;;11.00;;
5054;SDS011;13829;48.990;8.346;2023-09-12T10:51:38;13.48;;;10.88;;
5054;SDS011;13829;48.990;8.346;2023-09-12T10:54:06;13.93;;;10.68;;
5054;SDS011;13829;48.990;8.346;2023-09-12T10:56:34;15.35;;;11.20;;
5054;SDS011;13829;48.990;8.346;2023-09-12T10:59:13;12.00;;;9.77;;
5054;SDS011;13829;48.990;8.346;2023-09-12T11:01:42;16.58;;;11.43;;
5054;SDS011;13829;48.990;8.346;2023-09-12T11:04:33;11.40;;;9.90;;
5054;SDS011;13829;48.990;8.346;2023-09-12T11:07:02;11.13;;;9.93;;
5054;SDS011;13829;48.990;8.346;2023-09-12T11:10:19;11.93;;;9.73;;
5054;SDS011;13829;48.990;8.346;2023-09-12T11:12:49;13.60;;;10.95;;
5054;SDS011;13829;48.990;8.346;2023-09-12T11:15:19;13.32;;;10.15;;
5054;SDS011;13829;48.990;8.346;2023-09-12T11:17:59;16.50;;;10.40;;
5054;SDS011;13829;48.990;8.346;2023-09-12T11:20:48;13.68;;;9.90;;
5054;SDS011;13829;48.990;8.346;2023-09-12T11:23:19;12.35;;;9.50;;
5054;SDS011;13829;48.990;8.346;2023-09-12T11:25:46;11.15;;;9.70;;
5054;SDS011;13829;48.990;8.346;2023-09-12T11:28:14;12.13;;;9.70;;
5054;SDS011;13829;48.990;8.346;2023-09-12T11:30:57;10.95;;;9.85;;
5054;SDS011;13829;48.990;8.346;2023-09-12T11:33:25;9.77;;;8.80;;
5054;SDS011;13829;48.990;8.346;2023-09-12T11:35:53;10.60;;;8.68;;
5054;SDS011;13829;48.990;8.346;2023-09-12T11:38:26;11.27;;;8.30;;
5054;SDS011;13829;48.990;8.346;2023-09-12T11:40:55;9.95;;;8.88;;
5054;SDS011;13829;48.990;8.346;2023-09-12T11:43:23;9.77;;;8.50;;
5054;SDS011;13829;48.990;8.346;2023-09-12T11:45:53;11.48;;;8.27;;
5054;SDS011;13829;48.990;8.346;2023-09-12T11:48:22;12.32;;;8.23;;
5054;SDS011;13829;48.990;8.346;2023-09-12T11:50:51;9.75;;;8.65;;
5054;SDS011;13829;48.990;8.346;2023-09-12T11:53:20;12.35;;;8.63;;
5054;SDS011;13829;48.990;8.346;2023-09-12T11:55:51;12.40;;;9.13;;
5054;SDS011;13829;48.990;8.346;2023-09-12T11:58:22;8.98;;;8.07;;
5054;SDS011;13829;48.990;8.346;2023-09-12T12:00:52;10.35;;;8.60;;
5054;SDS011;13829;48.990;8.346;2023-09-12T12:03:22;10.90;;;8.10;;
5054;SDS011;13829;48.990;8.346;2023-09-12T12:05:53;11.05;;;8.45;;
5054;SDS011;13829;48.990;8.346;2023-09-12T12:08:21;8.45;;;7.50;;
5054;SDS011;13829;48.990;8.346;2023-09-12T12:10:49;9.77;;;7.53;;
5054;SDS011;13829;48.990;8.346;2023-09-12T12:13:17;10.48;;;8.23;;
5054;SDS011;13829;48.990;8.346;2023-09-12T12:15:45;9.20;;;7.97;;
5054;SDS011;13829;48.990;8.346;2023-09-12T12:18:12;12.85;;;9.20;;
5054;SDS011;13829;48.990;8.346;2023-09-12T12:20:39;8.95;;;7.55;;
5054;SDS011;13829;48.990;8.346;2023-09-12T12:23:07;10.73;;;8.48;;
5054;SDS011;13829;48.990;8.346;2023-09-12T12:25:34;13.02;;;8.65;;
5054;SDS011;13829;48.990;8.346;2023-09-12T12:28:02;13.00;;;7.68;;
5054;SDS011;13829;48.990;8.346;2023-09-12T12:30:30;11.18;;;7.95;;
5054;SDS011;13829;48.990;8.346;2023-09-12T12:33:00;11.23;;;8.00;;
5054;SDS011;13829;48.990;8.346;2023-09-12T12:35:32;9.75;;;7.70;;
5054;SDS011;13829;48.990;8.346;2023-09-12T12:38:01;12.35;;;8.05;;
5054;SDS011;13829;48.990;8.346;2023-09-12T12:40:31;9.82;;;7.20;;
5054;SDS011;13829;48.990;8.346;2023-09-12T12:43:03;12.60;;;7.65;;
5054;SDS011;13829;48.990;8.346;2023-09-12T12:45:31;7.70;;;7.00;;
5054;SDS011;13829;48.990;8.346;2023-09-12T12:47:58;9.57;;;7.47;;
5054;SDS011;13829;48.990;8.346;2023-09-12T12:50:27;9.65;;;7.78;;
5054;SDS011;13829;48.990;8.346;2023-09-12T12:52:54;12.38;;;8.25;;
5054;SDS011;13829;48.990;8.346;2023-09-12T12:55:21;11.95;;;7.38;;
5054;SDS011;13829;48.990;8.346;2023-09-12T12:57:53;10.02;;;6.45;;
5054;SDS011;13829;48.990;8.346;2023-09-12T13:00:20;7.80;;;7.07;;
5054;SDS011;13829;48.990;8.346;2023-09-12T13:02:48;11.05;;;7.47;;
5054;SDS011;13829;48.990;8.346;2023-09-12T13:05:23;9.57;;;7.82;;
5054;SDS011;13829;48.990;8.346;2023-09-12T13:07:52;9.68;;;6.90;;
5054;SDS011;13829;48.990;8.346;2023-09-12T13:10:20;9.50;;;7.25;;
5054;SDS011;13829;48.990;8.346;2023-09-12T13:12:48;7.63;;;6.82;;
5054;SDS011;13829;48.990;8.346;2023-09-12T13:15:17;9.95;;;7.82;;
5054;SDS011;13829;48.990;8.346;2023-09-12T13:17:44;9.20;;;7.28;;
5054;SDS011;13829;48.990;8.346;2023-09-12T13:20:12;8.18;;;7.28;;
5054;SDS011;13829;48.990;8.346;2023-09-12T13:22:39;8.75;;;7.80;;
5054;SDS011;13829;48.990;8.346;2023-09-12T13:25:08;7.10;;;6.40;;
5054;SDS011;13829;48.990;8.346;2023-09-12T13:27:35;10.27;;;7.75;;
5054;SDS011;13829;48.990;8.346;2023-09-12T13:30:03;13.85;;;8.00;;
5054;SDS011;13829;48.990;8.346;2023-09-12T13:32:32;12.45;;;7.30;;
5054;SDS011;13829;48.990;8.346;2023-09-12T13:34:59;11.23;;;8.07;;
5054;SDS011;13829;48.990;8.346;2023-09-12T13:37:26;14.40;;;8.77;;
5054;SDS011;13829;48.990;8.346;2023-09-12T13:39:54;9.10;;;7.75;;
5054;SDS011;13829;48.990;8.346;2023-09-12T13:42:23;8.48;;;7.60;;
5054;SDS011;13829;48.990;8.346;2023-09-12T13:44:53;9.98;;;7.18;;
5054;SDS011;13829;48.990;8.346;2023-09-12T13:47:20;9.63;;;7.68;;
5054;SDS011;13829;48.990;8.346;2023-09-12T13:49:49;13.65;;;7.93;;
5054;SDS011;13829;48.990;8.346;2023-09-12T13:52:17;9.45;;;7.65;;
5054;SDS011;13829;48.990;8.346;2023-09-12T13:54:43;7.47;;;6.70;;
5054;SDS011;13829;48.990;8.346;2023-09-12T13:57:10;10.20;;;8.05;;
5054;SDS011;13829;48.990;8.346;2023-09-12T13:59:38;8.00;;;6.72;;
5054;SDS011;13829;48.990;8.346;2023-09-12T14:04:33;7.72;;;6.93;;
5054;SDS011;13829;48.990;8.346;2023-09-12T14:07:01;11.18;;;7.38;;
5054;SDS011;13829;48.990;8.346;2023-09-12T14:09:29;12.25;;;7.38;;
5054;SDS011;13829;48.990;8.346;2023-09-12T14:11:56;9.40;;;6.97;;
5054;SDS011;13829;48.990;8.346;2023-09-12T14:14:23;8.15;;;7.30;;
5054;SDS011;13829;48.990;8.346;2023-09-12T14:16:50;10.73;;;7.53;;
5054;SDS011;13829;48.990;8.346;2023-09-12T14:19:17;8.43;;;6.75;;
5054;SDS011;13829;48.990;8.346;2023-09-12T14:21:44;7.43;;;6.68;;
5054;SDS011;13829;48.990;8.346;2023-09-12T14:24:12;9.35;;;6.80;;
5054;SDS011;13829;48.990;8.346;2023-09-12T14:26:39;8.80;;;6.60;;
5054;SDS011;13829;48.990;8.346;2023-09-12T14:29:06;10.68;;;7.47;;
5054;SDS011;13829;48.990;8.346;2023-09-12T14:31:33;11.05;;;6.95;;
5054;SDS011;13829;48.990;8.346;2023-09-12T14:34:01;7.15;;;6.32;;
5054;SDS011;13829;48.990;8.346;2023-09-12T14:36:30;12.48;;;6.93;;
5054;SDS011;13829;48.990;8.346;2023-09-12T14:38:57;10.05;;;7.88;;
5054;SDS011;13829;48.990;8.346;2023-09-12T14:41:24;9.60;;;7.05;;
5054;SDS011;13829;48.990;8.346;2023-09-12T14:43:51;6.80;;;6.20;;
5054;SDS011;13829;48.990;8.346;2023-09-12T14:46:18;9.40;;;6.97;;
5054;SDS011;13829;48.990;8.346;2023-09-12T14:48:45;7.70;;;6.70;;
5054;SDS011;13829;48.990;8.346;2023-09-12T14:51:12;8.55;;;6.57;;
5054;SDS011;13829;48.990;8.346;2023-09-12T14:53:39;7.50;;;6.40;;
5054;SDS011;13829;48.990;8.346;2023-09-12T14:56:09;8.32;;;6.20;;